Time;durP1;ratioP1;P1;durP2;ratioP2;P2;SDS_P1;SDS_P2;PMS_P1;PMS_P2;Temp;Humidity;BMP_temperature;BMP_pressure;BME280_temperature;BME280_humidity;BME280_pressure;Samples;Min_cycle;Max_cycle;Signal;HPM_P1;HPM_P2
2022/07/03 00:00:08;;;;;;;3.72;3.08;;;;;;;17.05;74.77;101637.91;5083318;28;20446;-77
2022/07/03 00:02:34;;;;;;;6.03;3.22;;;;;;;17.08;74.55;101639.47;5097079;28;20046;-77
2022/07/03 00:04:59;;;;;;;6.13;3.25;;;;;;;17.00;74.87;101635.69;5081957;28;20059;-77
2022/07/03 00:07:24;;;;;;;5.70;3.13;;;;;;;17.01;74.41;101636.50;5099053;28;20406;-77
2022/07/03 00:09:50;;;;;;;4.45;3.20;;;;;;;16.93;74.30;101634.53;5076868;28;20027;-77
2022/07/03 00:12:15;;;;;;;5.55;2.83;;;;;;;16.86;73.87;101652.16;5069560;28;20025;-77
2022/07/03 00:14:41;;;;;;;4.65;2.78;;;;;;;16.75;74.49;101657.63;5104396;28;20475;-77
2022/07/03 00:17:06;;;;;;;4.68;2.95;;;;;;;16.68;73.94;101659.16;5076568;28;20032;-77
2022/07/03 00:19:31;;;;;;;5.18;3.50;;;;;;;16.61;74.58;101670.44;5119046;22;20049;-47
2022/07/03 00:22:02;;;;;;;6.70;3.70;;;;;;;16.59;74.99;101672.41;5059012;28;20587;-50
2022/07/03 00:25:02;;;;;;;7.07;3.45;;;;;;;16.57;73.67;101669.03;5068395;28;20032;-46
2022/07/03 00:27:28;;;;;;;6.07;3.70;;;;;;;16.50;74.41;101669.69;5079577;28;20518;-47
2022/07/03 00:29:56;;;;;;;8.70;4.97;;;;;;;16.39;74.96;101674.19;5074752;28;20029;-45
2022/07/03 00:32:23;;;;;;;10.10;4.17;;;;;;;16.41;74.36;101676.72;5074361;28;20028;-47
2022/07/03 00:34:50;;;;;;;7.13;6.15;;;;;;;16.42;74.91;101681.97;5074541;28;20032;-46
2022/07/03 00:37:16;;;;;;;6.97;5.40;;;;;;;16.42;74.98;101683.78;5074465;28;20025;-47
2022/07/03 00:39:43;;;;;;;5.25;4.18;;;;;;;16.39;74.91;101679.53;5074244;28;20089;-47
2022/07/03 00:42:11;;;;;;;5.78;4.15;;;;;;;16.36;74.96;101677.13;5074419;28;20394;-51
2022/07/03 00:45:06;;;;;;;5.20;4.00;;;;;;;16.44;73.67;101679.97;5073650;28;20059;-46
2022/07/03 00:47:35;;;;;;;7.80;4.20;;;;;;;16.33;75.04;101677.41;5055824;28;20033;-47
2022/07/03 00:50:06;;;;;;;4.82;4.00;;;;;;;16.34;74.21;101676.44;5074404;28;20093;-50
2022/07/03 00:52:32;;;;;;;4.85;4.22;;;;;;;16.26;74.72;101677.09;5073777;28;20043;-48
2022/07/03 00:54:59;;;;;;;4.90;4.40;;;;;;;16.28;75.03;101669.75;5074353;28;20041;-47
2022/07/03 00:57:27;;;;;;;5.80;4.30;;;;;;;16.27;75.19;101676.13;5073889;28;20017;-49
2022/07/03 00:59:53;;;;;;;8.65;5.45;;;;;;;16.24;75.13;101678.22;5074293;28;20054;-46
2022/07/03 01:02:33;;;;;;;5.28;3.80;;;;;;;16.20;75.35;101666.88;5074070;28;20020;-46
2022/07/03 01:04:59;;;;;;;7.78;4.57;;;;;;;16.17;74.90;101667.19;5061964;28;20376;-47
2022/07/03 01:07:37;;;;;;;6.50;5.00;;;;;;;16.18;74.87;101674.22;5069111;28;20104;-46
2022/07/03 01:10:15;;;;;;;6.73;5.10;;;;;;;16.14;74.93;101670.13;5066434;28;20041;-47
2022/07/03 01:13:11;;;;;;;8.90;5.47;;;;;;;16.20;73.68;101663.38;5072867;28;20501;-47
2022/07/03 01:15:42;;;;;;;6.43;4.47;;;;;;;16.09;74.99;101675.03;5066037;28;20028;-48
2022/07/03 01:18:29;;;;;;;5.88;3.95;;;;;;;16.14;74.09;101674.63;5074143;28;20024;-50
2022/07/03 01:21:34;;;;;;;4.53;4.13;;;;;;;16.09;73.66;101681.25;5038783;28;20504;-47
2022/07/03 01:24:45;;;;;;;5.10;4.50;;;;;;;16.02;73.72;101682.75;5040457;28;20043;-47
2022/07/03 01:27:16;;;;;;;5.43;4.28;;;;;;;15.94;74.59;101679.91;5073665;28;20037;-46
2022/07/03 01:30:01;;;;;;;5.93;4.72;;;;;;;15.89;74.66;101676.78;5073056;28;20032;-48
2022/07/03 01:32:33;;;;;;;6.07;4.47;;;;;;;15.79;74.92;101668.66;5073592;28;20025;-47
2022/07/03 01:35:02;;;;;;;7.68;4.22;;;;;;;15.84;74.99;101669.13;5073316;28;20070;-47
2022/07/03 01:37:30;;;;;;;6.65;4.72;;;;;;;15.82;74.49;101664.84;5073123;28;20027;-48
2022/07/03 01:39:57;;;;;;;5.35;4.80;;;;;;;15.78;75.07;101669.63;5073174;28;20362;-47
2022/07/03 01:42:24;;;;;;;9.05;5.13;;;;;;;15.77;74.77;101664.41;5073083;28;20032;-46
2022/07/03 01:44:53;;;;;;;6.75;5.13;;;;;;;15.72;75.49;101665.63;5071277;28;20090;-46
2022/07/03 01:47:19;;;;;;;7.90;4.50;;;;;;;15.70;75.75;101672.09;5073110;28;20033;-46
2022/07/03 01:49:44;;;;;;;6.30;4.47;;;;;;;15.66;75.42;101671.50;5072962;28;20043;-47
2022/07/03 01:52:11;;;;;;;7.90;4.70;;;;;;;15.58;76.01;101676.66;5072550;28;20094;-46
2022/07/03 01:54:39;;;;;;;6.22;4.78;;;;;;;15.60;75.81;101676.53;5072848;28;20029;-45
2022/07/03 01:57:06;;;;;;;8.60;5.27;;;;;;;15.57;76.05;101671.44;5072504;28;20028;-45
2022/07/03 01:59:31;;;;;;;6.72;4.40;;;;;;;15.51;76.52;101675.50;5072529;28;20302;-45
2022/07/03 02:02:22;;;;;;;4.82;4.25;;;;;;;15.54;75.27;101667.19;5072464;28;20535;-46
2022/07/03 02:04:53;;;;;;;8.23;4.65;;;;;;;15.49;76.03;101672.94;5060833;28;20416;-46
2022/07/03 02:07:37;;;;;;;5.63;4.45;;;;;;;15.46;76.29;101662.47;5072916;28;20043;-47
2022/07/03 02:10:02;;;;;;;9.30;4.90;;;;;;;15.44;76.56;101666.28;5072484;28;20098;-48
2022/07/03 02:12:38;;;;;;;5.10;4.60;;;;;;;15.44;76.15;101656.41;5072915;28;20470;-47
2022/07/03 02:15:06;;;;;;;8.23;4.90;;;;;;;15.34;76.66;101655.50;5072651;28;20274;-48
2022/07/03 02:17:48;;;;;;;9.45;4.80;;;;;;;15.38;76.26;101659.59;5051737;28;20039;-46
2022/07/03 02:20:16;;;;;;;6.05;4.47;;;;;;;15.36;76.87;101653.53;5056229;28;20059;-47
2022/07/03 02:23:01;;;;;;;6.40;4.80;;;;;;;15.35;76.03;101650.03;5052918;28;20032;-45
2022/07/03 02:25:34;;;;;;;5.93;4.75;;;;;;;15.29;77.31;101655.03;5052090;28;20084;-47
2022/07/03 02:28:24;;;;;;;7.15;5.10;;;;;;;15.25;76.90;101646.38;5052566;28;20489;-48
2022/07/03 02:30:54;;;;;;;7.05;4.85;;;;;;;15.24;77.48;101654.53;5052109;28;20025;-46
2022/07/03 02:33:25;;;;;;;8.30;5.18;;;;;;;15.18;77.81;101658.59;5052520;28;20512;-47
2022/07/03 02:35:54;;;;;;;7.53;5.13;;;;;;;15.17;77.13;101663.09;5052444;28;20036;-46
2022/07/03 02:38:20;;;;;;;8.63;5.13;;;;;;;15.15;77.89;101658.84;5051977;28;20036;-45
2022/07/03 02:41:06;;;;;;;9.65;5.38;;;;;;;15.16;76.91;101664.06;5051978;28;20425;-46
2022/07/03 02:43:52;;;;;;;7.93;4.97;;;;;;;15.12;77.44;101659.97;5034715;28;20043;-46
2022/07/03 02:49:49;;;;;;;7.57;5.18;;;;;;;15.09;77.10;101656.69;5052937;28;20111;-45
2022/07/03 02:52:26;;;;;;;7.75;5.60;;;;;;;14.97;78.63;101645.16;5035627;28;20447;-47
2022/07/03 02:54:54;;;;;;;10.05;5.57;;;;;;;14.98;78.39;101647.72;5051905;28;20114;-46
2022/07/03 02:57:20;;;;;;;6.15;4.95;;;;;;;15.02;77.88;101651.00;5052358;28;20397;-46
2022/07/03 03:00:01;;;;;;;4.95;4.20;;;;;;;14.98;77.86;101642.38;5034057;28;20037;-46
2022/07/03 03:02:52;;;;;;;6.03;4.75;;;;;;;14.96;77.66;101651.50;5052355;28;20025;-47
2022/07/03 03:05:49;;;;;;;6.60;4.78;;;;;;;14.97;77.95;101658.53;5052003;28;20057;-47
2022/07/03 03:08:33;;;;;;;6.88;4.97;;;;;;;14.93;78.33;101663.28;5053752;28;20127;-47
2022/07/03 03:11:05;;;;;;;5.47;4.82;;;;;;;14.87;78.36;101669.16;5056127;28;20492;-46
2022/07/03 03:13:32;;;;;;;5.60;4.70;;;;;;;14.88;78.03;101664.66;5056268;28;20432;-46
2022/07/03 03:16:11;;;;;;;5.55;4.68;;;;;;;14.88;77.31;101664.66;5055547;28;20033;-43
2022/07/03 03:18:38;;;;;;;7.30;4.50;;;;;;;14.83;77.83;101666.88;5058807;28;20052;-45
2022/07/03 03:21:08;;;;;;;9.13;4.88;;;;;;;14.79;78.05;101668.94;5057313;28;20056;-47
2022/07/03 03:23:49;;;;;;;5.10;4.43;;;;;;;14.78;77.64;101670.75;5037869;28;20033;-45
2022/07/03 03:26:18;;;;;;;4.97;4.45;;;;;;;14.72;77.77;101668.59;5055908;28;20021;-45
2022/07/03 03:28:44;;;;;;;6.07;4.35;;;;;;;14.72;77.83;101670.41;5056252;28;20402;-47
2022/07/03 03:31:10;;;;;;;7.13;4.43;;;;;;;14.67;78.07;101675.25;5055317;28;20040;-48
2022/07/03 03:33:44;;;;;;;5.15;4.60;;;;;;;14.66;78.06;101676.25;5055900;28;20460;-48
2022/07/03 03:36:11;;;;;;;7.82;4.22;;;;;;;14.66;78.47;101677.09;5055640;28;20040;-48
2022/07/03 03:38:37;;;;;;;9.57;4.35;;;;;;;14.60;78.22;101670.44;5055712;28;20029;-49
2022/07/03 03:41:03;;;;;;;4.82;4.40;;;;;;;14.58;77.88;101677.66;5055010;28;20108;-48
2022/07/03 03:43:29;;;;;;;6.45;4.50;;;;;;;14.56;77.88;101678.78;5055878;28;20025;-48
2022/07/03 03:45:54;;;;;;;6.57;4.35;;;;;;;14.54;78.66;101678.91;5054910;28;20083;-45
2022/07/03 03:48:20;;;;;;;8.45;4.35;;;;;;;14.56;77.89;101674.28;5055591;28;20021;-46
2022/07/03 03:50:45;;;;;;;5.90;4.28;;;;;;;14.56;78.32;101673.44;5055535;28;20104;-47
2022/07/03 03:53:12;;;;;;;7.18;4.32;;;;;;;14.55;78.68;101671.72;5054957;28;20592;-48
2022/07/03 03:55:37;;;;;;;6.15;4.80;;;;;;;14.58;77.99;101675.00;5074378;28;20097;-48
2022/07/03 03:58:04;;;;;;;5.50;4.15;;;;;;;14.59;77.95;101674.06;5057478;28;20486;-46
2022/07/03 04:00:30;;;;;;;5.20;4.50;;;;;;;14.58;78.92;101674.16;5075265;28;20055;-46
2022/07/03 04:02:55;;;;;;;8.88;4.57;;;;;;;14.60;77.20;101669.56;5050809;28;20068;-46
2022/07/03 04:05:20;;;;;;;12.93;4.90;;;;;;;14.60;78.04;101672.25;5057156;28;20024;-47
2022/07/03 04:07:46;;;;;;;7.13;4.60;;;;;;;14.61;78.00;101672.13;5075172;28;20108;-47
2022/07/03 04:10:11;;;;;;;5.85;4.57;;;;;;;14.60;78.27;101677.59;5068780;28;20117;-47
2022/07/03 04:12:37;;;;;;;6.35;4.63;;;;;;;14.64;78.01;101678.19;5075141;28;20051;-48
2022/07/03 04:15:03;;;;;;;6.32;4.57;;;;;;;14.61;78.38;101673.94;5071238;28;20029;-49
2022/07/03 04:17:29;;;;;;;6.32;4.13;;;;;;;14.59;78.69;101679.41;5040389;28;20024;-48
2022/07/03 04:19:55;;;;;;;6.15;4.18;;;;;;;14.63;77.89;101680.00;5074657;28;20119;-48
2022/07/03 04:22:20;;;;;;;5.28;4.40;;;;;;;14.65;77.88;101678.06;5070296;28;20029;-47
2022/07/03 04:24:45;;;;;;;5.65;4.57;;;;;;;14.63;77.69;101677.34;5075037;28;20028;-47
2022/07/03 04:27:11;;;;;;;7.82;4.25;;;;;;;14.64;77.02;101681.72;5057145;28;20059;-47
2022/07/03 04:29:36;;;;;;;5.30;4.28;;;;;;;14.61;77.48;101681.97;5074849;28;20036;-47
2022/07/03 04:32:01;;;;;;;5.38;4.53;;;;;;;14.59;78.25;101681.25;5066998;28;20035;-49
2022/07/03 04:34:27;;;;;;;5.47;4.50;;;;;;;14.64;77.93;101680.84;5071524;28;20028;-47
2022/07/03 04:36:53;;;;;;;7.03;4.95;;;;;;;14.68;78.01;101685.00;5074545;28;20474;-49
2022/07/03 04:39:18;;;;;;;6.05;4.63;;;;;;;14.71;78.49;101687.44;5069100;28;20381;-46
2022/07/03 04:41:43;;;;;;;6.53;4.65;;;;;;;14.78;78.21;101693.97;5074662;28;20120;-48
2022/07/03 04:44:08;;;;;;;6.63;4.50;;;;;;;14.84;77.81;101697.97;5067069;28;20058;-46
2022/07/03 04:46:34;;;;;;;6.73;4.40;;;;;;;14.87;77.60;101703.06;5060116;28;20317;-46
2022/07/03 04:48:59;;;;;;;8.25;4.47;;;;;;;14.93;77.33;101703.41;5063726;28;20306;-46
2022/07/03 04:51:24;;;;;;;5.70;4.45;;;;;;;14.94;76.53;101704.28;5070515;28;20024;-46
2022/07/03 04:53:49;;;;;;;5.93;4.45;;;;;;;14.97;76.68;101706.69;5057000;28;20028;-48
2022/07/03 04:56:15;;;;;;;8.07;5.03;;;;;;;14.98;76.87;101698.53;5064544;28;20020;-46
2022/07/03 04:58:40;;;;;;;5.03;4.53;;;;;;;15.04;76.67;101707.03;5062372;28;20295;-46
2022/07/03 05:01:05;;;;;;;4.80;4.30;;;;;;;15.14;76.95;101702.66;5062396;28;20489;-47
2022/07/03 05:03:31;;;;;;;6.30;4.43;;;;;;;15.24;77.00;101702.72;5063372;28;20291;-48
2022/07/03 05:05:57;;;;;;;6.18;4.60;;;;;;;15.27;76.09;101706.00;5072758;28;20043;-48
2022/07/03 05:08:23;;;;;;;7.88;4.47;;;;;;;15.35;75.45;101711.59;5065067;28;20041;-47
2022/07/03 05:10:48;;;;;;;5.63;4.53;;;;;;;15.47;75.89;101699.00;5070142;28;20048;-47
2022/07/03 05:13:13;;;;;;;5.90;4.13;;;;;;;15.56;75.51;101700.03;5071955;28;20112;-47
2022/07/03 05:15:38;;;;;;;6.47;4.38;;;;;;;15.63;74.90;101701.22;5053685;28;20283;-48
2022/07/03 05:18:04;;;;;;;6.30;4.30;;;;;;;15.65;75.33;101699.25;5065850;28;20047;-48
2022/07/03 05:20:29;;;;;;;7.53;4.35;;;;;;;15.70;74.76;101702.41;5071879;28;20063;-46
2022/07/03 05:22:59;;;;;;;5.45;4.25;;;;;;;15.66;74.44;101703.63;5061760;28;20028;-46
2022/07/03 05:25:26;;;;;;;7.00;4.40;;;;;;;15.68;75.22;101708.88;5073619;28;20028;-46
2022/07/03 05:27:52;;;;;;;4.70;4.07;;;;;;;15.71;75.25;101709.47;5065189;28;20034;-45
2022/07/03 05:30:19;;;;;;;5.70;4.25;;;;;;;15.81;75.10;101709.56;5073814;28;20016;-48
2022/07/03 05:32:45;;;;;;;6.43;4.10;;;;;;;15.86;75.00;101707.34;5065619;28;20033;-47
2022/07/03 05:35:11;;;;;;;7.00;4.60;;;;;;;16.01;75.08;101707.84;5073500;28;20024;-47
2022/07/03 05:37:37;;;;;;;5.65;4.18;;;;;;;16.16;74.26;101713.72;5073343;28;20381;-47
2022/07/03 05:40:04;;;;;;;7.45;3.95;;;;;;;16.34;73.45;101713.13;5073504;28;20028;-46
2022/07/03 05:42:29;;;;;;;7.85;3.90;;;;;;;16.51;73.57;101717.00;5065303;28;20033;-50
2022/07/03 05:44:55;;;;;;;7.20;4.15;;;;;;;16.69;72.68;101714.53;5072181;28;20063;-46
2022/07/03 05:47:20;;;;;;;4.18;3.40;;;;;;;16.89;72.04;101708.25;5061875;28;20057;-46
2022/07/03 05:49:45;;;;;;;5.25;3.60;;;;;;;17.16;71.35;101709.41;5069820;28;20052;-48
2022/07/03 05:52:10;;;;;;;8.50;3.67;;;;;;;17.36;70.88;101704.91;5068508;28;20103;-48
2022/07/03 05:54:36;;;;;;;6.22;3.95;;;;;;;17.53;70.02;101708.72;5054148;28;20298;-50
2022/07/03 05:57:01;;;;;;;5.32;3.92;;;;;;;17.74;68.84;101714.78;5069679;28;20379;-46
2022/07/03 05:59:26;;;;;;;6.05;3.60;;;;;;;17.96;68.09;101725.41;5068218;28;20028;-50
2022/07/03 06:01:52;;;;;;;7.57;3.65;;;;;;;18.13;67.39;101719.25;5069854;28;20029;-48
2022/07/03 06:04:17;;;;;;;5.22;3.67;;;;;;;18.36;66.80;101722.44;5055020;28;20096;-45
2022/07/03 06:06:42;;;;;;;7.07;3.53;;;;;;;18.57;66.49;101724.94;5072992;28;20036;-45
2022/07/03 06:09:08;;;;;;;4.03;3.20;;;;;;;18.82;65.81;101725.22;5060821;28;20115;-46
2022/07/03 06:11:33;;;;;;;8.10;3.70;;;;;;;18.96;64.75;101722.03;5069847;28;20278;-48
2022/07/03 06:13:58;;;;;;;5.88;3.72;;;;;;;19.19;64.99;101717.06;5069059;28;20386;-43
2022/07/03 06:16:23;;;;;;;8.15;3.72;;;;;;;19.42;64.43;101717.47;5067659;28;20033;-48
2022/07/03 06:18:49;;;;;;;6.85;3.50;;;;;;;19.55;62.66;101724.28;5058122;28;20049;-47
2022/07/03 06:21:14;;;;;;;6.22;3.40;;;;;;;19.57;62.78;101733.09;5052689;28;20505;-44
2022/07/03 06:23:39;;;;;;;7.20;3.10;;;;;;;19.65;63.11;101732.28;5052058;28;20036;-48
2022/07/03 06:26:05;;;;;;;8.40;3.70;;;;;;;19.77;62.62;101734.63;5052498;28;20021;-42
2022/07/03 06:28:30;;;;;;;5.35;2.95;;;;;;;19.95;62.41;101726.53;5052554;28;20630;-44
2022/07/03 06:30:56;;;;;;;5.47;3.30;;;;;;;20.06;62.07;101728.09;5051646;28;20025;-44
2022/07/03 06:33:22;;;;;;;5.30;3.53;;;;;;;20.26;61.08;101730.59;5051844;28;20033;-47
2022/07/03 06:35:47;;;;;;;7.47;3.10;;;;;;;20.30;61.44;101722.00;5052341;28;20298;-45
2022/07/03 06:38:13;;;;;;;5.68;3.05;;;;;;;20.40;61.04;101731.81;5033812;28;20549;-45
2022/07/03 06:40:38;;;;;;;6.05;3.17;;;;;;;20.61;60.99;101726.03;5052169;28;20033;-45
2022/07/03 06:43:03;;;;;;;7.03;2.72;;;;;;;20.93;59.52;101727.19;5051874;28;20028;-49
2022/07/03 06:45:28;;;;;;;6.75;3.35;;;;;;;21.11;58.56;101727.91;5052381;28;20029;-48
2022/07/03 06:47:54;;;;;;;7.83;3.30;;;;;;;21.31;58.55;101720.34;5051926;28;20033;-46
2022/07/03 06:50:19;;;;;;;7.68;3.35;;;;;;;21.50;58.24;101719.22;5052276;28;20286;-46
2022/07/03 06:52:44;;;;;;;7.25;2.80;;;;;;;21.56;56.93;101726.63;5050900;28;20059;-45
2022/07/03 06:55:10;;;;;;;6.13;2.90;;;;;;;21.72;57.17;101727.69;5051679;28;20093;-46
2022/07/03 06:57:35;;;;;;;9.27;3.28;;;;;;;21.89;56.23;101731.22;5052443;28;20047;-45
2022/07/03 07:00:00;;;;;;;5.57;2.72;;;;;;;22.17;55.53;101728.97;5052486;28;20036;-43
2022/07/03 07:02:26;;;;;;;6.03;2.97;;;;;;;22.09;54.79;101727.13;5050569;28;20025;-44
2022/07/03 07:04:51;;;;;;;5.95;3.13;;;;;;;22.05;54.26;101728.50;5034156;28;20290;-44
2022/07/03 07:07:16;;;;;;;7.20;3.25;;;;;;;22.12;54.83;101728.66;5052253;28;20044;-44
2022/07/03 07:09:42;;;;;;;7.85;3.10;;;;;;;22.39;55.34;101729.28;5052610;28;20386;-43
2022/07/03 07:12:07;;;;;;;6.80;2.92;;;;;;;22.58;54.40;101722.59;5051859;28;20025;-46
2022/07/03 07:14:33;;;;;;;6.30;2.97;;;;;;;22.85;53.86;101724.84;5050481;28;20163;-46
2022/07/03 07:16:58;;;;;;;5.67;2.57;;;;;;;23.10;53.32;101732.88;5050196;28;20041;-44
2022/07/03 07:19:23;;;;;;;5.90;2.63;;;;;;;23.21;52.78;101723.47;5059445;28;20662;-43
2022/07/03 07:21:48;;;;;;;8.13;3.13;;;;;;;23.40;51.74;101731.16;5060533;28;20290;-44
2022/07/03 07:24:14;;;;;;;8.60;2.60;;;;;;;23.53;51.86;101735.09;5052484;28;20279;-43
2022/07/03 07:26:39;;;;;;;6.20;2.67;;;;;;;23.79;51.06;101735.56;5052107;28;20087;-43
2022/07/03 07:29:05;;;;;;;3.88;2.42;;;;;;;23.90;49.63;101731.59;5051426;28;20029;-44
2022/07/03 07:31:30;;;;;;;6.33;2.67;;;;;;;24.02;49.59;101743.69;5052105;28;20029;-43
2022/07/03 07:33:55;;;;;;;4.38;2.40;;;;;;;24.07;50.29;101739.59;5051863;28;20263;-44
2022/07/03 07:36:20;;;;;;;7.17;2.90;;;;;;;23.88;49.88;101736.38;5050275;28;20119;-46
2022/07/03 07:38:46;;;;;;;4.93;2.08;;;;;;;23.88;50.22;101736.38;5051741;28;20276;-43
2022/07/03 07:41:11;;;;;;;4.20;2.43;;;;;;;23.80;49.46;101741.84;5051999;28;20082;-43
2022/07/03 07:43:36;;;;;;;4.63;2.17;;;;;;;24.07;49.38;101751.28;5047388;28;20784;-43
2022/07/03 07:46:02;;;;;;;4.27;2.30;;;;;;;24.15;49.42;101745.78;5051660;28;20427;-48
2022/07/03 07:48:27;;;;;;;7.10;2.50;;;;;;;24.45;48.80;101747.63;5051627;28;20283;-44
2022/07/03 07:50:52;;;;;;;5.82;2.72;;;;;;;24.73;49.18;101732.41;5050363;28;20025;-43
2022/07/03 07:53:18;;;;;;;7.43;3.20;;;;;;;24.80;47.59;101735.19;5051919;28;20036;-43
2022/07/03 07:55:43;;;;;;;5.63;3.00;;;;;;;25.14;47.32;101738.28;5074078;28;20318;-44
2022/07/03 07:58:09;;;;;;;4.80;2.70;;;;;;;25.39;47.00;101733.34;5069118;28;20497;-44
2022/07/03 08:00:34;;;;;;;5.65;2.60;;;;;;;25.43;46.90;101742.78;5058493;28;20300;-45
2022/07/03 08:05:43;;;;;;;6.82;2.70;;;;;;;25.93;44.72;101749.13;5064333;28;20559;-43
2022/07/03 08:08:14;;;;;;;4.22;2.53;;;;;;;26.08;44.80;101743.59;5053357;28;20033;-45
2022/07/03 08:10:46;;;;;;;5.82;2.47;;;;;;;26.25;43.76;101735.97;5049798;28;20382;-45
2022/07/03 08:13:13;;;;;;;4.93;2.30;;;;;;;26.44;43.26;101744.44;5054981;28;20057;-45
2022/07/03 08:15:40;;;;;;;5.20;2.22;;;;;;;26.58;42.39;101749.75;5054749;28;20482;-47
2022/07/03 08:18:06;;;;;;;4.18;2.50;;;;;;;26.68;43.11;101743.97;5054598;28;20540;-48
2022/07/03 08:20:32;;;;;;;5.70;2.50;;;;;;;26.75;43.49;101744.84;5054538;28;20045;-45
2022/07/03 08:22:58;;;;;;;5.80;2.67;;;;;;;27.17;43.06;101739.31;5048055;28;20017;-45
2022/07/03 08:25:24;;;;;;;5.20;2.30;;;;;;;27.32;43.10;101741.88;5052435;28;20082;-46
2022/07/03 08:27:49;;;;;;;6.18;2.58;;;;;;;27.50;41.43;101738.56;5054418;28;20028;-45
2022/07/03 08:30:17;;;;;;;5.47;2.58;;;;;;;27.52;42.63;101738.34;5072764;22;20076;-77
2022/07/03 08:32:47;;;;;;;5.25;2.53;;;;;;;27.72;42.20;101739.19;5059795;28;20430;-77
2022/07/03 08:35:15;;;;;;;5.90;3.10;;;;;;;27.85;41.76;101731.00;5057636;28;20032;-78
2022/07/03 08:37:42;;;;;;;5.40;2.63;;;;;;;27.93;40.64;101738.16;5057876;28;20471;-77
2022/07/03 08:40:09;;;;;;;3.60;1.90;;;;;;;27.77;39.82;101741.28;5070015;28;20040;-77
2022/07/03 08:42:42;;;;;;;4.03;2.00;;;;;;;27.90;41.01;101735.81;5052646;28;20373;-80
2022/07/03 08:45:34;;;;;;;4.38;2.00;;;;;;;28.09;41.56;101736.88;5032643;28;20025;-80
2022/07/03 08:48:07;;;;;;;3.65;1.92;;;;;;;28.42;39.85;101739.53;5045294;28;20036;-78
2022/07/03 08:50:34;;;;;;;4.53;2.45;;;;;;;28.39;38.84;101741.84;5043515;28;20077;-77
2022/07/03 08:53:00;;;;;;;4.70;2.33;;;;;;;28.65;39.16;101731.94;5057024;28;20098;-79
2022/07/03 08:55:25;;;;;;;3.83;2.00;;;;;;;28.90;37.61;101724.63;5055053;28;20530;-79
2022/07/03 08:57:55;;;;;;;3.72;1.55;;;;;;;29.06;37.80;101716.97;5054970;28;20390;-79
2022/07/03 09:00:21;;;;;;;4.00;2.00;;;;;;;29.17;37.04;101732.72;5047386;28;20021;-79
2022/07/03 09:02:48;;;;;;;4.65;1.90;;;;;;;29.12;36.98;101730.59;5064669;28;20031;-78
2022/07/03 09:05:15;;;;;;;3.47;1.77;;;;;;;29.21;37.35;101730.38;5048553;28;20051;-79
2022/07/03 09:07:42;;;;;;;2.88;1.70;;;;;;;29.42;36.58;101729.19;5062805;28;20028;-80
2022/07/03 09:10:12;;;;;;;5.00;1.83;;;;;;;29.48;37.60;101725.56;5072705;28;20094;-80
2022/07/03 09:12:38;;;;;;;3.95;2.00;;;;;;;29.83;35.75;101727.84;5064305;28;20036;-80
2022/07/03 09:15:07;;;;;;;5.22;2.58;;;;;;;29.66;36.89;101725.63;5066035;28;20060;-82
2022/07/03 09:17:37;;;;;;;2.85;1.73;;;;;;;29.87;36.36;101729.03;5061099;28;20415;-81
2022/07/03 09:20:05;;;;;;;4.70;2.03;;;;;;;29.58;36.04;101731.38;5053132;28;20064;-81
2022/07/03 09:22:38;;;;;;;4.28;1.90;;;;;;;29.80;35.68;101736.50;5043370;28;20463;-82
2022/07/03 09:25:12;;;;;;;5.32;1.77;;;;;;;29.80;35.33;101731.84;5049200;28;20099;-80
2022/07/03 09:27:48;;;;;;;4.57;2.08;;;;;;;29.65;35.34;101734.91;5054812;28;20075;-80
2022/07/03 09:30:13;;;;;;;3.22;2.10;;;;;;;29.85;36.05;101736.66;5056075;28;20119;-80
2022/07/03 09:32:44;;;;;;;3.72;2.22;;;;;;;29.94;34.70;101734.47;5055992;28;20016;-81
2022/07/03 09:35:24;;;;;;;3.08;1.83;;;;;;;30.08;36.30;101745.06;5056804;28;20020;-81
2022/07/03 09:37:51;;;;;;;3.15;1.80;;;;;;;30.42;34.12;101748.31;5054093;28;20025;-78
2022/07/03 09:40:18;;;;;;;4.03;1.75;;;;;;;30.59;35.64;101748.56;5056871;28;20056;-79
2022/07/03 09:42:58;;;;;;;5.07;2.30;;;;;;;30.13;36.02;101754.50;5056024;28;20025;-79
2022/07/03 09:45:24;;;;;;;5.60;1.80;;;;;;;29.85;35.46;101751.19;5049349;28;20025;-79
2022/07/03 09:47:49;;;;;;;5.10;2.10;;;;;;;30.08;35.73;101755.19;5038091;28;20108;-79
2022/07/03 09:50:15;;;;;;;3.40;1.63;;;;;;;29.86;35.56;101754.75;5056079;28;20032;-79
2022/07/03 09:52:43;;;;;;;3.13;1.80;;;;;;;29.60;35.76;101747.59;5051367;28;20021;-79
2022/07/03 09:55:08;;;;;;;4.43;1.80;;;;;;;29.93;35.85;101743.72;5057761;28;20111;-79
2022/07/03 09:57:34;;;;;;;4.00;1.57;;;;;;;29.87;35.12;101748.22;5046932;28;20512;-80
2022/07/03 10:00:15;;;;;;;4.75;1.67;;;;;;;30.00;35.46;101750.00;5054908;28;20025;-79
2022/07/03 10:02:59;;;;;;;4.57;1.45;;;;;;;29.79;35.68;101748.50;5061026;28;20032;-79
2022/07/03 10:05:31;;;;;;;3.65;1.52;;;;;;;29.41;35.75;101743.91;5060190;28;20032;-80
2022/07/03 10:08:10;;;;;;;3.78;1.45;;;;;;;29.32;35.76;101748.84;5061109;28;20029;-80
2022/07/03 10:10:39;;;;;;;3.75;1.65;;;;;;;28.83;36.17;101745.72;5062174;28;20033;-80
2022/07/03 10:13:04;;;;;;;4.43;1.60;;;;;;;29.03;35.77;101745.63;5060407;28;20025;-80
2022/07/03 10:15:32;;;;;;;6.43;1.88;;;;;;;28.52;36.76;101749.16;5049674;28;20431;-80
2022/07/03 10:17:59;;;;;;;4.68;1.52;;;;;;;28.45;36.04;101754.66;5054375;28;20021;-80
2022/07/03 10:20:35;;;;;;;3.28;1.48;;;;;;;28.40;36.98;101740.81;5055333;28;20013;-80
2022/07/03 10:23:01;;;;;;;4.80;2.00;;;;;;;28.74;37.25;101750.56;5066646;28;20043;-80
2022/07/03 10:25:27;;;;;;;3.47;1.60;;;;;;;28.35;38.02;101746.06;5048957;28;20116;-79
2022/07/03 10:27:52;;;;;;;2.95;1.55;;;;;;;28.48;37.54;101751.50;5054573;28;20065;-80
2022/07/03 10:30:20;;;;;;;6.43;2.80;;;;;;;28.47;37.86;101757.19;5050684;28;20037;-79
2022/07/03 10:32:47;;;;;;;5.68;1.45;;;;;;;28.65;38.44;101759.25;5044744;28;20463;-79
2022/07/03 10:35:15;;;;;;;5.10;1.42;;;;;;;28.97;35.45;101760.16;5057080;28;20032;-80
2022/07/03 10:38:02;;;;;;;3.67;1.23;;;;;;;29.11;36.23;101766.38;5036242;28;20025;-79
2022/07/03 10:46:23;;;;;;;2.33;1.10;;;;;;;28.40;35.65;101766.22;5058900;28;20241;-79
2022/07/03 10:49:05;;;;;;;2.88;1.30;;;;;;;28.13;37.06;101765.44;5055824;28;20055;-79
2022/07/03 10:51:50;;;;;;;1.85;1.23;;;;;;;28.03;36.25;101767.78;5043064;28;20029;-79
2022/07/03 10:54:26;;;;;;;4.68;1.50;;;;;;;28.27;36.19;101770.88;5057000;28;20025;-79
2022/07/03 10:56:58;;;;;;;4.97;1.60;;;;;;;28.09;36.67;101764.19;5032467;28;20029;-79
2022/07/03 10:59:36;;;;;;;4.00;1.42;;;;;;;28.18;36.80;101762.91;5037079;28;20025;-79
2022/07/03 11:02:27;;;;;;;3.25;1.80;;;;;;;27.96;37.12;101773.25;5041106;28;20438;-79
2022/07/03 11:05:01;;;;;;;3.85;1.40;;;;;;;27.75;36.76;101776.97;5057804;28;20032;-79
2022/07/03 11:07:28;;;;;;;4.20;1.50;;;;;;;28.00;36.97;101774.50;5057679;28;20052;-79
2022/07/03 11:10:05;;;;;;;3.55;1.58;;;;;;;28.31;37.50;101762.06;5057031;28;20529;-79
2022/07/03 11:12:55;;;;;;;1.83;1.30;;;;;;;28.62;36.45;101760.53;5059134;28;20480;-79
2022/07/03 11:15:41;;;;;;;4.22;2.00;;;;;;;28.87;36.72;101752.41;5060066;28;20024;-80
2022/07/03 11:18:19;;;;;;;3.90;1.42;;;;;;;28.55;35.86;101759.69;5054331;28;20037;-79
2022/07/03 11:20:44;;;;;;;5.25;2.05;;;;;;;28.07;35.13;101751.81;5058169;28;20463;-80
2022/07/03 11:23:10;;;;;;;4.23;2.03;;;;;;;27.96;36.18;101754.13;5043891;28;20032;-79
2022/07/03 11:25:49;;;;;;;3.13;1.70;;;;;;;28.01;37.25;101759.78;5058362;28;20037;-81
2022/07/03 11:28:32;;;;;;;;;;;;;;;28.48;37.09;101751.50;5053009;28;20062;-81
2022/07/03 11:31:17;;;;;;;3.65;1.35;;;;;;;28.33;36.71;101751.75;5045562;28;19917;-81
2022/07/03 11:33:51;;;;;;;3.13;1.65;;;;;;;28.34;36.39;101736.19;5037954;28;20033;-81
2022/07/03 11:36:16;;;;;;;4.05;2.15;;;;;;;28.03;36.73;101741.31;5056321;28;20083;-81
2022/07/03 11:38:48;;;;;;;5.20;2.37;;;;;;;27.85;38.30;101739.19;5055631;28;20025;-80
2022/07/03 11:41:16;;;;;;;5.07;2.50;;;;;;;27.54;39.20;101739.81;5040686;28;20078;-81
2022/07/03 11:43:48;;;;;;;4.57;2.67;;;;;;;27.53;38.95;101742.72;5074329;28;20041;-80
2022/07/03 11:46:18;;;;;;;6.30;2.10;;;;;;;27.23;38.74;101746.66;5042127;28;20052;-81